Metar Aviation Weather Data EGOS RAF Shawbury

20°C Temp
10°C Dewpoint
53% Humidity
Temperature
21 KM/H
13 MPH
11 KTS
280°
Due West

Wind Speed
Light Rain
Showers
Pressure 1014 (hPa) - 29.94 (in)
Visibility 6.2 (mi) - 10.0 (km)

Current Conditions
EGOS
RAF Shawbury
Metar :EGOS 201150Z 28011KT 9999 -RA FEW035 SCT080 BKN120 20/10 Q1014 BLU NOSIG
Fri 20th July 12:50 pm

RAF Shawbury
  Metar Aviation API Data Provided by https://www.checkwx.com/ PHP scripts by weather34.com ©2018